createdAt,value
2019-04-11T00:00:37.792Z,8.83
2019-04-11T00:03:05.093Z,9.73
2019-04-11T00:05:31.896Z,9.53
2019-04-11T00:07:59.716Z,9.43
2019-04-11T00:10:27.298Z,9.75
2019-04-11T00:12:54.836Z,9.65
2019-04-11T00:15:21.611Z,9.60
2019-04-11T00:17:48.613Z,9.73
2019-04-11T00:20:15.970Z,9.53
2019-04-11T00:22:43.719Z,9.80
2019-04-11T00:25:11.498Z,9.78
2019-04-11T00:27:39.257Z,10.43
2019-04-11T00:30:08.064Z,10.53
2019-04-11T00:32:35.887Z,10.93
2019-04-11T00:35:03.673Z,10.58
2019-04-11T00:37:30.514Z,10.58
2019-04-11T00:39:57.225Z,10.63
2019-04-11T00:42:24.024Z,11.40
2019-04-11T00:44:51.450Z,10.53
2019-04-11T00:47:18.550Z,10.68
2019-04-11T00:49:46.391Z,10.93
2019-04-11T00:52:14.246Z,10.85
2019-04-11T00:54:41.447Z,10.65
2019-04-11T00:57:08.514Z,10.60
2019-04-11T00:59:35.337Z,9.58
2019-04-11T01:02:03.034Z,11.12
2019-04-11T01:04:29.829Z,11.53
2019-04-11T01:06:56.529Z,11.30
2019-04-11T01:09:24.273Z,11.10
2019-04-11T01:14:26.487Z,10.85
2019-04-11T01:16:54.207Z,11.30
2019-04-11T01:19:21.122Z,11.15
2019-04-11T01:21:48.781Z,11.60
2019-04-11T01:24:15.717Z,10.13
2019-04-11T01:26:43.413Z,10.58
2019-04-11T01:29:11.305Z,11.38
2019-04-11T01:31:38.294Z,11.10
2019-04-11T01:34:05.113Z,10.53
2019-04-11T01:36:31.881Z,11.05
2019-04-11T01:39:00.960Z,10.43
2019-04-11T01:41:28.801Z,11.12
2019-04-11T01:44:00.778Z,10.93
2019-04-11T01:46:24.439Z,10.00
2019-04-11T01:49:06.139Z,10.82
2019-04-11T01:51:33.862Z,10.30
2019-04-11T01:54:01.690Z,10.28
2019-04-11T01:56:29.413Z,10.55
2019-04-11T01:58:57.191Z,10.50
2019-04-11T02:01:47.256Z,11.15
2019-04-11T02:04:23.828Z,12.07
2019-04-11T02:06:51.059Z,11.78
2019-04-11T02:09:19.989Z,11.15
2019-04-11T02:11:47.736Z,10.72
2019-04-11T02:14:16.945Z,10.90
2019-04-11T02:16:43.354Z,11.50
2019-04-11T02:19:10.232Z,12.05
2019-04-11T02:21:37.894Z,10.82
2019-04-11T02:24:20.193Z,13.00
2019-04-11T02:26:59.063Z,11.65
2019-04-11T02:29:25.640Z,11.08
2019-04-11T02:31:52.893Z,11.97
2019-04-11T02:34:21.350Z,11.57
2019-04-11T02:36:49.081Z,11.45
2019-04-11T02:39:19.189Z,12.05
2019-04-11T02:41:44.540Z,12.45
2019-04-11T02:44:32.005Z,12.03
2019-04-11T02:46:48.197Z,11.88
2019-04-11T02:49:10.255Z,12.63
2019-04-11T02:51:38.883Z,11.45
2019-04-11T02:54:07.040Z,11.95
2019-04-11T02:56:36.277Z,11.90
2019-04-11T02:59:05.174Z,11.68
2019-04-11T03:01:33.991Z,11.85
2019-04-11T03:04:01.936Z,11.97
2019-04-11T03:06:31.027Z,11.40
2019-04-11T03:08:59.347Z,13.05
2019-04-11T03:11:27.579Z,11.43
2019-04-11T03:13:55.309Z,12.05
2019-04-11T03:16:35.416Z,11.88
2019-04-11T03:19:46.768Z,12.05
2019-04-11T03:22:01.535Z,12.10
2019-04-11T03:24:31.063Z,11.93
2019-04-11T03:27:00.403Z,12.10
2019-04-11T03:29:28.645Z,12.43
2019-04-11T03:32:37.039Z,12.13
2019-04-11T03:35:09.504Z,13.25
2019-04-11T03:37:23.467Z,13.03
2019-04-11T03:39:48.964Z,12.35
2019-04-11T03:42:07.625Z,12.15
2019-04-11T03:45:20.927Z,12.98
2019-04-11T03:47:40.087Z,13.00
2019-04-11T03:50:06.087Z,12.73
2019-04-11T03:52:28.248Z,12.20
2019-04-11T03:54:56.274Z,12.13
2019-04-11T03:57:25.418Z,12.03
2019-04-11T03:59:54.346Z,13.40
2019-04-11T04:02:22.472Z,14.07
2019-04-11T04:04:51.386Z,13.00
2019-04-11T04:07:19.185Z,12.35
2019-04-11T04:09:46.341Z,13.88
2019-04-11T04:12:14.155Z,14.20
2019-04-11T04:14:53.938Z,14.53
2019-04-11T04:17:45.551Z,15.48
2019-04-11T04:20:46.065Z,13.80
2019-04-11T04:23:20.878Z,14.07
2019-04-11T04:25:49.374Z,13.15
2019-04-11T04:28:16.246Z,14.75
2019-04-11T04:30:44.674Z,14.20
2019-04-11T04:33:12.967Z,13.20
2019-04-11T04:35:42.078Z,14.60
2019-04-11T04:38:09.969Z,13.98
2019-04-11T04:40:53.880Z,14.03
2019-04-11T04:43:10.383Z,14.50
2019-04-11T04:45:57.934Z,13.88
2019-04-11T04:48:11.143Z,14.73
2019-04-11T04:50:36.550Z,15.13
2019-04-11T04:53:03.300Z,14.83
2019-04-11T04:55:30.317Z,16.62
2019-04-11T04:57:59.765Z,16.85
2019-04-11T05:00:28.050Z,15.35
2019-04-11T05:02:57.136Z,16.37
2019-04-11T05:05:24.931Z,15.83
2019-04-11T05:07:53.983Z,15.05
2019-04-11T05:10:22.164Z,14.78
2019-04-11T05:12:49.185Z,14.53
2019-04-11T05:15:16.719Z,14.28
2019-04-11T05:17:45.805Z,14.35
2019-04-11T05:20:12.477Z,14.85
2019-04-11T05:22:39.427Z,15.38
2019-04-11T05:25:06.746Z,14.20
2019-04-11T05:27:33.622Z,14.50
2019-04-11T05:30:00.836Z,13.75
2019-04-11T05:32:29.197Z,13.55
2019-04-11T05:34:56.031Z,12.98
2019-04-11T05:37:22.882Z,13.75
2019-04-11T05:39:50.445Z,14.38
2019-04-11T05:42:19.510Z,12.95
2019-04-11T05:44:45.883Z,12.30
2019-04-11T05:47:18.225Z,12.88
2019-04-11T05:49:52.698Z,12.68
2019-04-11T05:52:19.856Z,13.15
2019-04-11T05:54:54.341Z,13.08
2019-04-11T05:57:24.125Z,12.03
2019-04-11T05:59:53.090Z,12.85
2019-04-11T06:02:41.635Z,13.08
2019-04-11T06:05:32.389Z,13.55
2019-04-11T06:07:59.919Z,13.60
2019-04-11T06:10:50.460Z,14.15
2019-04-11T06:13:36.862Z,13.53
2019-04-11T06:16:04.660Z,14.25
2019-04-11T06:18:52.209Z,13.50
2019-04-11T06:21:26.244Z,12.30
2019-04-11T06:24:01.519Z,13.25
2019-04-11T06:26:48.910Z,14.25
2019-04-11T06:29:24.971Z,11.95
2019-04-11T06:32:05.573Z,12.75
2019-04-11T06:34:35.480Z,12.30
2019-04-11T06:37:39.731Z,12.58
2019-04-11T06:40:12.826Z,12.70
2019-04-11T06:42:49.673Z,13.10
2019-04-11T06:45:35.640Z,13.13
2019-04-11T06:51:04.511Z,12.03
2019-04-11T06:53:37.387Z,12.10
2019-04-11T06:56:20.952Z,13.10
2019-04-11T06:58:57.134Z,13.40
2019-04-11T07:01:25.923Z,12.35
2019-04-11T07:04:25.284Z,11.80
2019-04-11T07:06:53.862Z,12.25
2019-04-11T07:09:39.433Z,12.58
2019-04-11T07:12:30.776Z,12.98
2019-04-11T07:15:02.627Z,12.10
2019-04-11T07:18:18.289Z,11.15
2019-04-11T07:21:03.080Z,11.48
2019-04-11T07:23:49.115Z,11.10
2019-04-11T07:26:25.204Z,10.40
2019-04-11T07:29:26.627Z,10.08
2019-04-11T07:32:09.413Z,9.83
2019-04-11T07:34:56.559Z,9.18
2019-04-11T07:37:47.445Z,9.90
2019-04-11T07:40:37.014Z,8.18
2019-04-11T07:43:13.256Z,8.38
2019-04-11T07:46:06.945Z,8.40
2019-04-11T07:48:36.258Z,7.80
2019-04-11T07:51:23.311Z,8.20
2019-04-11T07:53:50.614Z,8.13
2019-04-11T07:56:37.547Z,8.03
2019-04-11T07:59:07.586Z,9.10
2019-04-11T08:01:47.006Z,8.63
2019-04-11T08:04:45.234Z,8.50
2019-04-11T08:07:32.660Z,9.35
2019-04-11T08:10:05.835Z,8.35
2019-04-11T08:12:33.871Z,8.93
2019-04-11T08:15:19.880Z,8.25
2019-04-11T08:17:46.672Z,8.38
2019-04-11T08:20:41.917Z,9.03
2019-04-11T08:23:09.698Z,8.00
2019-04-11T08:25:55.806Z,8.73
2019-04-11T08:28:22.757Z,9.68
2019-04-11T08:31:13.169Z,8.25
2019-04-11T08:33:40.525Z,7.97
2019-04-11T08:36:27.138Z,8.38
2019-04-11T08:38:53.923Z,8.60
2019-04-11T08:41:35.779Z,8.38
2019-04-11T08:44:11.919Z,8.10
2019-04-11T08:46:42.681Z,8.35
2019-04-11T08:49:15.718Z,8.43
2019-04-11T08:51:43.250Z,7.85
2019-04-11T08:54:26.501Z,7.78
2019-04-11T08:56:53.663Z,8.18
2019-04-11T08:59:44.028Z,7.50
2019-04-11T09:05:04.809Z,7.47
2019-04-11T09:07:31.745Z,7.87
2019-04-11T09:10:16.187Z,7.80
2019-04-11T09:12:50.974Z,8.70
2019-04-11T09:15:35.738Z,7.65
2019-04-11T09:18:09.540Z,6.97
2019-04-11T09:20:47.728Z,6.67
2019-04-11T09:23:17.646Z,7.08
2019-04-11T09:26:20.103Z,6.97
2019-04-11T09:28:55.589Z,7.62
2019-04-11T09:31:43.666Z,7.35
2019-04-11T09:34:42.454Z,7.70
2019-04-11T09:37:22.668Z,7.47
2019-04-11T09:40:15.333Z,7.50
2019-04-11T09:43:01.774Z,8.28
2019-04-11T09:45:43.903Z,7.45
2019-04-11T09:48:31.426Z,7.47
2019-04-11T09:51:15.680Z,7.83
2019-04-11T09:53:45.012Z,7.67
2019-04-11T09:56:31.039Z,7.47
2019-04-11T09:59:00.775Z,7.42
2019-04-11T10:01:47.412Z,8.35
2019-04-11T10:04:14.364Z,8.50
2019-04-11T10:07:01.291Z,8.23
2019-04-11T10:09:40.061Z,8.58
2019-04-11T10:12:25.161Z,7.80
2019-04-11T10:14:51.990Z,7.35
2019-04-11T10:17:44.041Z,7.85
2019-04-11T10:20:13.010Z,8.20
2019-04-11T10:22:49.357Z,7.87
2019-04-11T10:25:19.316Z,8.00
2019-04-11T10:28:17.556Z,8.88
2019-04-11T10:31:02.377Z,7.83
2019-04-11T10:33:37.229Z,7.62
2019-04-11T10:36:18.960Z,8.18
2019-04-11T10:38:46.817Z,8.18
2019-04-11T10:41:33.261Z,7.83
2019-04-11T10:44:03.477Z,7.08
2019-04-11T10:46:58.505Z,8.33
2019-04-11T10:49:42.115Z,8.00
2019-04-11T10:52:15.335Z,7.55
2019-04-11T10:54:45.041Z,7.78
2019-04-11T10:57:26.228Z,7.22
2019-04-11T10:59:52.980Z,7.35
2019-04-11T11:02:31.774Z,7.97
2019-04-11T11:04:59.051Z,7.42
2019-04-11T11:07:28.687Z,6.90
2019-04-11T11:10:00.884Z,6.95
2019-04-11T11:12:35.264Z,7.33
2019-04-11T11:15:11.356Z,8.05
2019-04-11T11:18:25.125Z,8.53
2019-04-11T11:21:02.632Z,7.87
2019-04-11T11:23:45.964Z,7.80
2019-04-11T11:26:22.618Z,8.23
2019-04-11T11:29:12.863Z,7.28
2019-04-11T11:34:21.307Z,7.55
2019-04-11T11:37:07.050Z,7.62
2019-04-11T11:39:52.326Z,8.08
2019-04-11T11:42:37.010Z,6.90
2019-04-11T11:45:11.024Z,7.75
2019-04-11T11:47:57.223Z,8.45
2019-04-11T11:50:24.832Z,7.62
2019-04-11T11:53:13.074Z,7.60
2019-04-11T11:55:39.002Z,7.90
2019-04-11T11:58:28.275Z,7.50
2019-04-11T12:00:57.223Z,7.17
2019-04-11T12:03:46.715Z,7.72
2019-04-11T12:06:16.927Z,7.78
2019-04-11T12:09:07.851Z,7.78
2019-04-11T12:11:35.137Z,7.17
2019-04-11T12:14:14.484Z,7.72
2019-04-11T12:17:01.909Z,7.10
2019-04-11T12:19:45.683Z,7.28
2019-04-11T12:22:02.309Z,7.45
2019-04-11T12:24:34.319Z,7.12
2019-04-11T12:27:43.759Z,7.33
2019-04-11T12:30:15.649Z,14.23
2019-04-11T12:32:48.688Z,14.98
2019-04-11T12:35:24.054Z,8.33
2019-04-11T12:38:10.031Z,7.42
2019-04-11T12:40:54.955Z,7.35
2019-04-11T12:43:21.696Z,7.17
2019-04-11T12:46:10.700Z,8.60
2019-04-11T12:48:41.367Z,6.83
2019-04-11T12:53:54.305Z,6.80
2019-04-11T12:56:43.691Z,7.28
2019-04-11T12:59:17.028Z,7.58
2019-04-11T13:02:08.475Z,7.85
2019-04-11T13:04:37.043Z,7.83
2019-04-11T13:07:32.380Z,7.35
2019-04-11T13:10:19.567Z,8.05
2019-04-11T13:13:11.609Z,7.47
2019-04-11T13:15:47.099Z,7.50
2019-04-11T13:18:42.617Z,7.37
2019-04-11T13:21:29.039Z,7.15
2019-04-11T13:24:14.250Z,7.47
2019-04-11T13:26:59.247Z,6.58
2019-04-11T13:29:48.644Z,7.15
2019-04-11T13:32:37.781Z,7.40
2019-04-11T13:35:10.678Z,7.20
2019-04-11T13:37:56.994Z,7.37
2019-04-11T13:40:58.867Z,7.12
2019-04-11T13:43:30.586Z,5.92
2019-04-11T13:46:25.971Z,7.17
2019-04-11T13:49:02.804Z,6.45
2019-04-11T13:51:55.256Z,5.95
2019-04-11T13:54:37.969Z,6.40
2019-04-11T13:57:22.710Z,6.62
2019-04-11T14:00:07.468Z,5.90
2019-04-11T14:02:50.909Z,6.33
2019-04-11T14:05:36.287Z,6.90
2019-04-11T14:08:03.088Z,6.60
2019-04-11T14:10:31.661Z,6.40
2019-04-11T14:12:58.477Z,6.58
2019-04-11T14:15:25.525Z,6.17
2019-04-11T14:18:29.950Z,6.60
2019-04-11T14:21:03.143Z,6.47
2019-04-11T14:24:04.606Z,6.12
2019-04-11T14:26:36.960Z,6.35
2019-04-11T14:29:26.504Z,6.92
2019-04-11T14:32:01.668Z,6.33
2019-04-11T14:34:48.075Z,6.30
2019-04-11T14:37:23.621Z,5.62
2019-04-11T14:39:52.827Z,6.50
2019-04-11T14:42:32.024Z,6.05
2019-04-11T14:44:58.801Z,6.53
2019-04-11T14:47:42.930Z,6.30
2019-04-11T14:50:11.088Z,5.92
2019-04-11T14:53:03.734Z,6.83
2019-04-11T14:55:31.451Z,6.28
2019-04-11T14:58:17.762Z,6.20
2019-04-11T15:00:44.556Z,6.42
2019-04-11T15:03:29.462Z,6.67
2019-04-11T15:06:21.857Z,7.03
2019-04-11T15:09:06.595Z,6.85
2019-04-11T15:11:50.703Z,6.55
2019-04-11T15:14:28.712Z,6.60
2019-04-11T15:17:09.804Z,6.53
2019-04-11T15:19:36.608Z,6.08
2019-04-11T15:22:21.866Z,6.42
2019-04-11T15:24:49.384Z,5.95
2019-04-11T15:27:45.814Z,6.30
2019-04-11T15:30:16.690Z,6.08
2019-04-11T15:33:00.572Z,6.23
2019-04-11T15:35:27.248Z,5.80
2019-04-11T15:38:31.652Z,6.25
2019-04-11T15:40:58.923Z,5.75
2019-04-11T15:43:43.685Z,7.22
2019-04-11T15:46:14.706Z,5.75
2019-04-11T15:49:02.672Z,6.40
2019-04-11T15:51:58.145Z,6.55
2019-04-11T15:54:44.554Z,5.62
2019-04-11T15:57:21.260Z,5.67
2019-04-11T16:00:07.687Z,6.17
2019-04-11T16:02:54.333Z,6.78
2019-04-11T16:05:49.926Z,5.70
2019-04-11T16:08:43.732Z,6.20
2019-04-11T16:11:29.040Z,5.55
2019-04-11T16:14:27.568Z,5.47
2019-04-11T16:17:13.775Z,6.12
2019-04-11T16:19:51.634Z,6.12
2019-04-11T16:22:36.683Z,6.30
2019-04-11T16:25:07.967Z,6.12
2019-04-11T16:27:57.259Z,5.60
2019-04-11T16:30:24.143Z,5.67
2019-04-11T16:32:59.103Z,5.47
2019-04-11T16:35:33.103Z,6.00
2019-04-11T16:38:01.390Z,6.15
2019-04-11T16:40:53.242Z,6.22
2019-04-11T16:43:24.212Z,5.92
2019-04-11T16:46:06.235Z,6.47
2019-04-11T16:48:32.943Z,6.00
2019-04-11T16:50:59.642Z,6.03
2019-04-11T16:53:26.424Z,6.42
2019-04-11T16:55:53.953Z,6.47
2019-04-11T16:58:20.697Z,6.20
2019-04-11T17:00:52.133Z,6.67
2019-04-11T17:03:17.270Z,6.20
2019-04-11T17:05:55.748Z,6.60
2019-04-11T17:11:06.035Z,5.90
2019-04-11T17:13:32.848Z,6.62
2019-04-11T17:16:00.631Z,6.08
2019-04-11T17:18:27.438Z,6.15
2019-04-11T17:20:54.107Z,6.33
2019-04-11T17:23:20.899Z,5.70
2019-04-11T17:25:52.361Z,6.45
2019-04-11T17:28:16.255Z,5.55
2019-04-11T17:30:43.025Z,5.28
2019-04-11T17:33:09.808Z,5.50
2019-04-11T17:35:36.566Z,4.85
2019-04-11T17:38:06.373Z,5.30
2019-04-11T17:40:51.759Z,5.58
2019-04-11T17:43:18.556Z,5.50
2019-04-11T17:45:45.235Z,5.58
2019-04-11T17:48:12.023Z,5.47
2019-04-11T17:50:38.791Z,5.28
2019-04-11T17:53:05.501Z,5.10
2019-04-11T17:55:32.194Z,5.20
2019-04-11T17:57:58.887Z,4.92
2019-04-11T18:00:29.977Z,5.50
2019-04-11T18:02:57.349Z,5.28
2019-04-11T18:05:24.144Z,5.42
2019-04-11T18:07:50.827Z,4.25
2019-04-11T18:10:17.596Z,4.65
2019-04-11T18:12:44.412Z,4.78
2019-04-11T18:15:11.293Z,4.95
2019-04-11T18:17:38.090Z,4.83
2019-04-11T18:20:06.927Z,5.22
2019-04-11T18:22:33.618Z,4.87
2019-04-11T18:25:00.301Z,4.87
2019-04-11T18:27:27.100Z,4.40
2019-04-11T18:29:53.958Z,4.40
2019-04-11T18:32:20.771Z,4.05
2019-04-11T18:34:48.059Z,4.30
2019-04-11T18:37:14.845Z,4.03
2019-04-11T18:39:41.636Z,5.00
2019-04-11T18:42:08.510Z,4.00
2019-04-11T18:44:35.218Z,4.12
2019-04-11T18:47:01.994Z,3.98
2019-04-11T18:49:28.835Z,3.83
2019-04-11T18:51:55.622Z,3.52
2019-04-11T18:54:22.418Z,3.90
2019-04-11T18:56:48.999Z,3.45
2019-04-11T18:59:15.698Z,3.20
2019-04-11T19:01:42.495Z,2.62
2019-04-11T19:04:11.802Z,2.83
2019-04-11T19:06:37.870Z,3.15
2019-04-11T19:09:08.588Z,2.58
2019-04-11T19:14:01.654Z,2.47
2019-04-11T19:16:28.358Z,2.55
2019-04-11T19:18:55.054Z,2.08
2019-04-11T19:21:21.826Z,2.60
2019-04-11T19:23:48.614Z,2.15
2019-04-11T19:26:15.386Z,2.25
2019-04-11T19:28:42.166Z,2.50
2019-04-11T19:31:08.976Z,2.35
2019-04-11T19:33:35.633Z,2.37
2019-04-11T19:36:02.305Z,2.52
2019-04-11T19:38:31.191Z,2.15
2019-04-11T19:40:57.968Z,2.50
2019-04-11T19:43:24.767Z,2.05
2019-04-11T19:45:51.454Z,2.15
2019-04-11T19:48:18.054Z,2.25
2019-04-11T19:50:44.725Z,2.50
2019-04-11T19:53:11.448Z,2.10
2019-04-11T19:55:56.218Z,1.85
2019-04-11T19:58:24.980Z,2.20
2019-04-11T20:00:53.903Z,2.27
2019-04-11T20:03:21.867Z,2.20
2019-04-11T20:06:08.568Z,2.20
2019-04-11T20:08:35.287Z,2.02
2019-04-11T20:11:02.068Z,2.15
2019-04-11T20:13:31.999Z,2.27
2019-04-11T20:15:57.444Z,2.00
2019-04-11T20:18:24.127Z,2.15
2019-04-11T20:20:52.201Z,2.25
2019-04-11T20:23:19.147Z,2.40
2019-04-11T20:25:49.020Z,2.22
2019-04-11T20:28:14.402Z,1.95
2019-04-11T20:30:41.482Z,2.25
2019-04-11T20:33:08.065Z,1.90
2019-04-11T20:35:34.872Z,2.40
2019-04-11T20:38:01.544Z,2.25
2019-04-11T20:40:28.346Z,2.30
2019-04-11T20:42:55.044Z,2.15
2019-04-11T20:45:22.604Z,2.20
2019-04-11T20:47:49.386Z,2.00
2019-04-11T20:50:16.089Z,1.92
2019-04-11T20:52:42.715Z,2.27
2019-04-11T20:55:09.870Z,2.50
2019-04-11T20:57:36.692Z,2.20
2019-04-11T21:00:25.515Z,2.52
2019-04-11T21:02:52.206Z,2.83
2019-04-11T21:05:19.005Z,2.50
2019-04-11T21:07:45.681Z,2.42
2019-04-11T21:10:12.484Z,2.10
2019-04-11T21:12:39.066Z,2.27
2019-04-11T21:15:06.379Z,2.17
2019-04-11T21:17:33.056Z,2.58
2019-04-11T21:19:59.758Z,2.22
2019-04-11T21:22:26.450Z,2.05
2019-04-11T21:25:12.767Z,1.82
2019-04-11T21:27:39.460Z,1.92
2019-04-11T21:30:06.466Z,1.90
2019-04-11T21:32:33.044Z,2.27
2019-04-11T21:35:01.778Z,2.58
2019-04-11T21:37:30.159Z,2.30
2019-04-11T21:39:57.040Z,2.10
2019-04-11T21:42:23.816Z,2.30
2019-04-11T21:44:50.524Z,2.30
2019-04-11T21:47:17.202Z,2.65
2019-04-11T21:49:44.015Z,2.55
2019-04-11T21:52:12.298Z,2.35
2019-04-11T21:54:39.518Z,2.52
2019-04-11T21:57:06.208Z,2.20
2019-04-11T21:59:32.890Z,2.40
2019-04-11T22:01:59.819Z,2.25
2019-04-11T22:04:27.148Z,2.60
2019-04-11T22:06:55.416Z,1.92
2019-04-11T22:09:22.502Z,2.37
2019-04-11T22:11:49.313Z,2.33
2019-04-11T22:14:16.085Z,2.00
2019-04-11T22:16:45.021Z,2.20
2019-04-11T22:19:13.970Z,2.15
2019-04-11T22:21:40.164Z,2.20
2019-04-11T22:24:06.964Z,2.67
2019-04-11T22:26:33.672Z,2.25
2019-04-11T22:29:00.471Z,2.22
2019-04-11T22:31:27.305Z,2.15
2019-04-11T22:34:22.961Z,2.20
2019-04-11T22:36:49.670Z,2.50
2019-04-11T22:39:16.494Z,2.98
2019-04-11T22:41:43.163Z,2.52
2019-04-11T22:44:09.932Z,2.30
2019-04-11T22:46:37.724Z,2.20
2019-04-11T22:49:08.666Z,2.30
2019-04-11T22:51:33.628Z,2.42
2019-04-11T22:54:00.738Z,2.40
2019-04-11T22:56:27.621Z,2.17
2019-04-11T22:58:54.326Z,2.65
2019-04-11T23:01:40.771Z,2.45
2019-04-11T23:04:07.445Z,2.45
2019-04-11T23:06:34.155Z,2.67
2019-04-11T23:09:00.961Z,2.47
2019-04-11T23:11:27.763Z,3.08
2019-04-11T23:13:54.552Z,2.90
2019-04-11T23:16:21.268Z,2.83
2019-04-11T23:19:07.679Z,2.92
2019-04-11T23:21:34.478Z,2.75
2019-04-11T23:24:11.507Z,2.77
2019-04-11T23:26:29.754Z,3.22
2019-04-11T23:28:56.433Z,2.92
2019-04-11T23:31:23.163Z,3.58
2019-04-11T23:33:51.965Z,2.95
2019-04-11T23:36:18.815Z,2.60
2019-04-11T23:38:47.152Z,2.62
2019-04-11T23:41:13.849Z,2.62
2019-04-11T23:43:40.638Z,3.62
2019-04-11T23:46:07.344Z,2.60
2019-04-11T23:48:34.022Z,2.98
2019-04-11T23:51:00.737Z,2.70
2019-04-11T23:53:29.082Z,2.65
2019-04-11T23:55:59.980Z,2.80
2019-04-11T23:58:24.711Z,2.65
